Terminal Aerodrome Forecast
Issued by NWS Shreveport, LA

Home | Current Version | Previous Version | Text Only | Print | Product List | Glossary On
Versions: 1 2 3 4 5 6 7 8 9 10 11 12 13 14 15 16 17 18 19 20 21 22 23 24 25 26 27 28 29 30
000
FTUS44 KSHV 241126
TAFLFK
TAF
KLFK 241126Z 2412/2512 12006KT P6SM VCTS BKN050CB
      TEMPO 2412/2416 3SM TSRA BR OVC015CB
     FM241700 07005KT P6SM SCT040
     FM242200 08006KT P6SM VCTS BKN030CB
     FM250400 08004KT P6SM BKN020
      TEMPO 2509/2512 3SM BR OVC010=

USA.gov is the U.S. government's official web portal to all federal, state and local government web resources and services.